createdAt,value
2019-06-10T00:01:44.669Z,73.30
2019-06-10T00:04:15.059Z,74.20
2019-06-10T00:06:45.415Z,73.70
2019-06-10T00:09:15.815Z,73.70
2019-06-10T00:11:46.184Z,74.30
2019-06-10T00:14:16.569Z,74.10
2019-06-10T00:16:46.957Z,75.40
2019-06-10T00:19:17.331Z,76.50
2019-06-10T00:21:47.721Z,74.60
2019-06-10T00:24:21.022Z,74.60
2019-06-10T00:26:51.508Z,76.30
2019-06-10T00:29:22.426Z,80.20
2019-06-10T00:31:54.020Z,83.10
2019-06-10T00:34:27.933Z,84.30
2019-06-10T00:36:59.637Z,90.00
2019-06-10T00:39:31.282Z,91.60
2019-06-10T00:42:03.166Z,97.20
2019-06-10T00:44:33.818Z,99.90
2019-06-10T00:47:06.635Z,99.90
2019-06-10T00:49:36.283Z,99.90
2019-06-10T00:52:07.438Z,99.90
2019-06-10T00:54:37.990Z,99.90
2019-06-10T00:57:09.892Z,99.90
2019-06-10T00:59:41.393Z,99.90
2019-06-10T01:02:14.220Z,99.90
2019-06-10T01:04:44.516Z,99.90
2019-06-10T01:07:15.101Z,99.90
2019-06-10T01:09:46.397Z,99.90
2019-06-10T01:12:16.782Z,99.90
2019-06-10T01:14:47.148Z,99.90
2019-06-10T01:17:17.531Z,99.90
2019-06-10T01:19:47.892Z,99.90
2019-06-10T01:22:18.286Z,99.90
2019-06-10T01:24:50.919Z,99.90
2019-06-10T01:27:21.209Z,99.90
2019-06-10T01:29:51.784Z,99.90
2019-06-10T01:32:22.182Z,99.90
2019-06-10T01:34:52.543Z,99.90
2019-06-10T01:37:22.948Z,99.90
2019-06-10T01:39:53.319Z,99.90
2019-06-10T01:42:23.705Z,99.90
2019-06-10T01:44:54.071Z,99.90
2019-06-10T01:47:24.446Z,99.90
2019-06-10T01:49:54.815Z,99.90
2019-06-10T01:52:25.205Z,99.90
2019-06-10T01:54:55.566Z,99.90
2019-06-10T01:57:25.946Z,99.90
2019-06-10T01:59:56.308Z,99.90
2019-06-10T02:02:26.867Z,99.90
2019-06-10T02:04:57.231Z,99.90
2019-06-10T02:07:27.624Z,99.90
2019-06-10T02:09:57.992Z,99.90
2019-06-10T02:12:31.321Z,99.90
2019-06-10T02:15:01.309Z,99.90
2019-06-10T02:17:31.984Z,99.90
2019-06-10T02:20:02.417Z,99.90
2019-06-10T02:22:32.868Z,99.90
2019-06-10T02:25:03.403Z,99.90
2019-06-10T02:27:33.797Z,99.90
2019-06-10T02:30:14.837Z,99.90
2019-06-10T02:32:38.385Z,99.90
2019-06-10T02:35:15.485Z,99.90
2019-06-10T02:37:44.405Z,99.90
2019-06-10T02:40:18.460Z,99.90
2019-06-10T02:42:50.226Z,99.90
2019-06-10T02:45:30.754Z,99.90
2019-06-10T02:47:53.529Z,99.90
2019-06-10T02:50:53.861Z,99.90
2019-06-10T02:53:30.266Z,99.90
2019-06-10T02:55:55.998Z,99.90
2019-06-10T02:58:33.304Z,99.90
2019-06-10T03:00:58.440Z,99.90
2019-06-10T03:03:39.286Z,99.90
2019-06-10T03:06:05.755Z,99.90
2019-06-10T03:08:36.170Z,99.90
2019-06-10T03:11:05.067Z,99.90
2019-06-10T03:13:35.462Z,99.90
2019-06-10T03:16:20.490Z,99.90
2019-06-10T03:18:52.513Z,99.90
2019-06-10T03:21:24.616Z,99.90
2019-06-10T03:23:55.099Z,99.90
2019-06-10T03:26:25.726Z,99.90
2019-06-10T03:29:08.153Z,99.90
2019-06-10T03:31:43.239Z,99.90
2019-06-10T03:34:14.358Z,99.90
2019-06-10T03:36:43.019Z,99.90
2019-06-10T03:39:13.542Z,99.90
2019-06-10T03:41:43.897Z,99.90
2019-06-10T03:44:14.281Z,99.90
2019-06-10T03:46:44.642Z,99.90
2019-06-10T03:49:15.049Z,99.90
2019-06-10T03:51:45.436Z,99.90
2019-06-10T03:54:17.095Z,99.90
2019-06-10T03:56:47.547Z,99.90
2019-06-10T03:59:19.166Z,99.90
2019-06-10T04:01:49.584Z,99.90
2019-06-10T04:04:22.414Z,99.90
2019-06-10T04:06:53.210Z,99.90
2019-06-10T04:09:25.456Z,99.90
2019-06-10T04:11:55.798Z,99.90
2019-06-10T04:14:38.386Z,99.90
2019-06-10T04:17:08.754Z,99.90
2019-06-10T04:19:39.155Z,99.90
2019-06-10T04:22:09.523Z,99.90
2019-06-10T04:24:39.928Z,99.90
2019-06-10T04:27:12.286Z,99.90
2019-06-10T04:29:42.395Z,99.90
2019-06-10T04:32:13.732Z,99.90
2019-06-10T04:34:44.119Z,99.90
2019-06-10T04:37:14.501Z,99.90
2019-06-10T04:39:44.887Z,99.90
2019-06-10T04:42:15.271Z,99.90
2019-06-10T04:44:45.662Z,99.90
2019-06-10T04:47:16.055Z,99.90
2019-06-10T04:49:46.424Z,99.90
2019-06-10T04:52:16.811Z,99.90
2019-06-10T04:54:47.200Z,99.90
2019-06-10T04:57:18.750Z,99.90
2019-06-10T04:59:49.125Z,99.90
2019-06-10T05:02:22.327Z,99.90
2019-06-10T05:04:53.243Z,99.90
2019-06-10T05:07:25.622Z,99.90
2019-06-10T05:09:55.843Z,99.90
2019-06-10T05:12:26.784Z,99.90
2019-06-10T05:14:58.278Z,99.90
2019-06-10T05:17:29.666Z,99.90
2019-06-10T05:20:02.510Z,99.90
2019-06-10T05:22:33.367Z,99.90
2019-06-10T05:25:05.132Z,99.90
2019-06-10T05:27:35.518Z,99.90
2019-06-10T05:30:27.700Z,99.90
2019-06-10T05:32:58.843Z,99.90
2019-06-10T05:35:31.580Z,99.90
2019-06-10T05:38:02.529Z,99.90
2019-06-10T05:40:34.279Z,99.90
2019-06-10T05:43:05.036Z,99.90
2019-06-10T05:45:54.733Z,99.90
2019-06-10T05:48:25.605Z,99.90
2019-06-10T05:51:02.815Z,99.90
2019-06-10T05:53:29.293Z,99.90
2019-06-10T05:56:02.190Z,99.90
2019-06-10T05:58:34.511Z,99.90
2019-06-10T06:01:04.583Z,99.90
2019-06-10T06:03:36.910Z,99.90
2019-06-10T06:06:07.055Z,99.90
2019-06-10T06:08:37.587Z,99.90
2019-06-10T06:11:07.885Z,99.90
2019-06-10T06:13:38.284Z,99.90
2019-06-10T06:16:08.648Z,99.90
2019-06-10T06:18:39.036Z,99.90
2019-06-10T06:21:22.711Z,99.90
2019-06-10T06:23:43.694Z,99.90
2019-06-10T06:26:16.459Z,99.90
2019-06-10T06:28:46.426Z,99.90
2019-06-10T06:31:16.788Z,99.90
2019-06-10T06:33:47.167Z,99.90
2019-06-10T06:36:17.550Z,99.90
2019-06-10T06:38:48.176Z,99.90
2019-06-10T06:41:18.541Z,99.90
2019-06-10T06:43:48.930Z,99.90
2019-06-10T06:46:19.287Z,99.90
2019-06-10T06:48:49.669Z,99.90
2019-06-10T06:51:35.495Z,99.90
2019-06-10T06:53:56.035Z,99.90
2019-06-10T06:56:24.212Z,99.90
2019-06-10T06:58:54.599Z,99.90
2019-06-10T07:01:26.014Z,99.90
2019-06-10T07:03:56.503Z,99.90
2019-06-10T07:06:27.410Z,99.90
2019-06-10T07:09:04.494Z,99.90
2019-06-10T07:11:38.720Z,99.90
2019-06-10T07:14:10.196Z,99.90
2019-06-10T07:16:45.834Z,99.90
2019-06-10T07:19:13.407Z,99.90
2019-06-10T07:22:02.309Z,99.90
2019-06-10T07:24:15.852Z,99.90
2019-06-10T07:26:52.134Z,99.90
2019-06-10T07:29:18.653Z,99.90
2019-06-10T07:31:51.052Z,99.90
2019-06-10T07:34:27.443Z,99.90
2019-06-10T07:36:57.845Z,99.90
2019-06-10T07:39:28.234Z,99.90
2019-06-10T07:41:58.600Z,99.90
2019-06-10T07:44:28.986Z,99.90
2019-06-10T07:46:59.347Z,99.90
2019-06-10T07:49:32.145Z,99.90
2019-06-10T07:52:14.980Z,99.90
2019-06-10T07:54:34.798Z,99.90
2019-06-10T07:57:05.951Z,99.90
2019-06-10T07:59:37.395Z,99.90
2019-06-10T08:02:08.143Z,99.90
2019-06-10T08:04:39.756Z,99.90
2019-06-10T08:07:12.515Z,99.90
2019-06-10T08:09:44.304Z,99.90
2019-06-10T08:12:15.188Z,99.90
2019-06-10T08:14:45.849Z,99.90
2019-06-10T08:17:16.285Z,99.90
2019-06-10T08:19:50.557Z,99.90
2019-06-10T08:22:31.127Z,99.90
2019-06-10T08:24:52.371Z,99.90
2019-06-10T08:27:22.944Z,99.90
2019-06-10T08:30:13.102Z,99.90
2019-06-10T08:32:25.527Z,99.90
2019-06-10T08:34:55.917Z,99.90
2019-06-10T08:37:27.282Z,99.90
2019-06-10T08:39:57.669Z,99.90
2019-06-10T08:42:28.043Z,99.90
2019-06-10T08:45:00.015Z,99.90
2019-06-10T08:47:32.625Z,99.90
2019-06-10T08:50:02.779Z,99.90
2019-06-10T08:52:49.539Z,99.90
2019-06-10T08:55:07.509Z,99.90
2019-06-10T08:57:38.942Z,99.90
2019-06-10T09:00:15.174Z,99.90
2019-06-10T09:02:45.965Z,99.90
2019-06-10T09:05:20.239Z,99.90
2019-06-10T09:07:54.209Z,99.90
2019-06-10T09:10:23.231Z,99.90
2019-06-10T09:12:54.631Z,99.90
2019-06-10T09:15:26.198Z,99.90
2019-06-10T09:17:56.850Z,99.90
2019-06-10T09:20:27.749Z,99.90
2019-06-10T09:23:15.022Z,99.60
2019-06-10T09:25:32.703Z,98.90
2019-06-10T09:28:02.547Z,99.20
2019-06-10T09:30:34.782Z,98.00
2019-06-10T09:33:05.155Z,94.10
2019-06-10T09:35:35.566Z,94.50
2019-06-10T09:38:05.963Z,91.80
2019-06-10T09:41:01.386Z,90.50
2019-06-10T09:43:33.378Z,90.50
2019-06-10T09:46:04.264Z,84.00
2019-06-10T09:48:34.706Z,71.00
2019-06-10T09:51:05.473Z,66.30
2019-06-10T09:53:46.466Z,62.50
2019-06-10T09:56:12.516Z,65.10
2019-06-10T09:59:03.855Z,61.00
2019-06-10T10:01:34.360Z,58.60
2019-06-10T10:04:06.243Z,59.30
2019-06-10T10:06:38.447Z,58.40
2019-06-10T10:09:08.815Z,60.50
2019-06-10T10:11:39.309Z,59.20
2019-06-10T10:14:15.561Z,56.00
2019-06-10T10:16:48.623Z,51.50
2019-06-10T10:19:15.106Z,54.80
2019-06-10T10:21:49.543Z,51.30
2019-06-10T10:24:17.556Z,51.80
2019-06-10T10:26:50.369Z,50.20
2019-06-10T10:29:20.024Z,51.60
2019-06-10T10:31:52.684Z,53.70
2019-06-10T10:34:23.648Z,54.00
2019-06-10T10:36:57.082Z,52.70
2019-06-10T10:39:27.016Z,53.60
2019-06-10T10:41:57.525Z,51.90
2019-06-10T10:44:27.909Z,59.10
2019-06-10T10:46:58.300Z,57.90
2019-06-10T10:49:28.670Z,61.00
2019-06-10T10:52:02.513Z,61.40
2019-06-10T10:54:36.445Z,62.40
2019-06-10T10:57:04.663Z,65.60
2019-06-10T10:59:35.096Z,67.70
2019-06-10T11:02:08.826Z,68.50
2019-06-10T11:04:58.607Z,69.00
2019-06-10T11:07:29.001Z,69.40
2019-06-10T11:09:59.406Z,69.40
2019-06-10T11:12:54.137Z,69.30
2019-06-10T11:15:43.459Z,69.00
2019-06-10T11:18:14.440Z,69.40
2019-06-10T11:20:45.281Z,68.80
2019-06-10T11:23:16.105Z,70.10
2019-06-10T11:25:47.747Z,69.20
2019-06-10T11:28:18.259Z,69.50
2019-06-10T11:30:49.414Z,69.20
2019-06-10T11:33:22.968Z,68.80
2019-06-10T11:35:55.651Z,69.20
2019-06-10T11:38:25.527Z,62.40
2019-06-10T11:40:58.535Z,63.10
2019-06-10T11:43:28.033Z,57.10
2019-06-10T11:46:04.365Z,55.90
2019-06-10T11:48:32.836Z,56.10
2019-06-10T11:51:04.668Z,55.50
2019-06-10T11:53:35.396Z,56.70
2019-06-10T11:56:06.037Z,58.20
2019-06-10T11:58:36.521Z,58.90
2019-06-10T12:01:06.969Z,59.00
2019-06-10T12:03:37.409Z,58.70
2019-06-10T12:06:07.887Z,57.80
2019-06-10T12:08:38.971Z,59.00
2019-06-10T12:11:09.384Z,61.10
2019-06-10T12:13:42.509Z,61.00
2019-06-10T12:18:44.210Z,59.40
2019-06-10T12:21:14.592Z,61.60
2019-06-10T12:23:44.989Z,64.80
2019-06-10T12:26:15.366Z,65.50
2019-06-10T12:28:45.752Z,65.20
2019-06-10T12:31:16.731Z,64.90
2019-06-10T12:36:17.140Z,63.20
2019-06-10T12:38:47.606Z,64.10
2019-06-10T12:41:17.999Z,65.30
2019-06-10T12:43:48.392Z,65.40
2019-06-10T12:46:19.277Z,64.90
2019-06-10T12:48:49.819Z,65.60
2019-06-10T12:51:22.542Z,65.00
2019-06-10T12:53:53.242Z,66.10
2019-06-10T12:56:23.624Z,64.50
2019-06-10T12:59:09.793Z,64.60
2019-06-10T13:01:38.011Z,67.30
2019-06-10T13:04:09.555Z,59.50
2019-06-10T13:06:42.715Z,63.80
2019-06-10T13:09:13.179Z,63.20
2019-06-10T13:11:43.590Z,64.70
2019-06-10T13:14:14.002Z,61.30
2019-06-10T13:16:44.364Z,61.80
2019-06-10T13:19:18.164Z,62.60
2019-06-10T13:21:48.539Z,65.30
2019-06-10T13:24:22.319Z,66.50
2019-06-10T13:26:52.420Z,64.70
2019-06-10T13:29:24.272Z,65.80
2019-06-10T13:31:55.972Z,62.40
2019-06-10T13:34:27.885Z,62.00
2019-06-10T13:36:58.763Z,62.30
2019-06-10T13:39:29.183Z,62.40
2019-06-10T13:41:59.826Z,61.60
2019-06-10T13:44:32.210Z,61.90
2019-06-10T13:47:08.092Z,61.20
2019-06-10T13:49:45.550Z,62.00
2019-06-10T13:52:16.771Z,64.60
2019-06-10T13:54:48.355Z,63.70
2019-06-10T13:57:18.760Z,64.30
2019-06-10T13:59:49.169Z,62.60
2019-06-10T14:02:19.559Z,62.70
2019-06-10T14:04:49.950Z,64.60
2019-06-10T14:07:23.398Z,65.20
2019-06-10T14:09:53.433Z,66.70
2019-06-10T14:12:24.838Z,68.50
2019-06-10T14:14:55.424Z,67.80
2019-06-10T14:17:25.888Z,68.60
2019-06-10T14:19:56.275Z,69.00
2019-06-10T14:22:26.641Z,70.60
2019-06-10T14:24:57.043Z,70.20
2019-06-10T14:27:27.456Z,71.10
2019-06-10T14:29:58.845Z,72.40
2019-06-10T14:32:29.276Z,73.20
2019-06-10T14:34:59.799Z,72.10
2019-06-10T14:37:38.686Z,73.40
2019-06-10T14:40:03.959Z,71.90
2019-06-10T14:42:34.534Z,72.50
2019-06-10T14:45:07.211Z,72.50
2019-06-10T14:47:37.775Z,72.70
2019-06-10T14:50:13.534Z,71.80
2019-06-10T14:52:42.881Z,72.20
2019-06-10T14:55:16.643Z,73.40
2019-06-10T14:57:46.025Z,72.20
2019-06-10T15:00:38.323Z,72.90
2019-06-10T15:03:09.964Z,74.30
2019-06-10T15:05:43.168Z,75.10
2019-06-10T15:08:15.379Z,76.30
2019-06-10T15:10:44.978Z,75.50
2019-06-10T15:13:16.074Z,78.40
2019-06-10T15:15:47.645Z,78.90
2019-06-10T15:18:20.642Z,80.00
2019-06-10T15:20:53.487Z,81.00
2019-06-10T15:23:23.795Z,78.80
2019-06-10T15:25:57.130Z,78.50
2019-06-10T15:28:26.500Z,79.50
2019-06-10T15:30:56.891Z,84.30
2019-06-10T15:33:27.269Z,79.00
2019-06-10T15:35:57.732Z,79.40
2019-06-10T15:38:28.131Z,79.80
2019-06-10T15:40:58.515Z,81.70
2019-06-10T15:43:28.903Z,83.00
2019-06-10T15:45:59.323Z,84.10
2019-06-10T15:48:29.748Z,82.50
2019-06-10T15:51:02.842Z,82.50
2019-06-10T15:53:32.877Z,83.60
2019-06-10T15:56:16.892Z,86.90
2019-06-10T15:58:35.729Z,87.60
2019-06-10T16:01:27.515Z,85.90
2019-06-10T16:03:59.195Z,86.20
2019-06-10T16:06:29.597Z,86.60
2019-06-10T16:08:59.998Z,90.30
2019-06-10T16:11:30.377Z,90.20
2019-06-10T16:14:02.888Z,87.20
2019-06-10T16:16:33.433Z,87.70
2019-06-10T16:19:03.835Z,88.20
2019-06-10T16:21:34.253Z,88.60
2019-06-10T16:24:04.639Z,90.10
2019-06-10T16:26:35.589Z,89.90
2019-06-10T16:29:06.099Z,90.20
2019-06-10T16:31:36.575Z,89.50
2019-06-10T16:34:07.846Z,90.00
2019-06-10T16:36:38.390Z,90.70
2019-06-10T16:39:09.129Z,91.00
2019-06-10T16:41:43.791Z,91.20
2019-06-10T16:44:15.768Z,88.60
2019-06-10T16:46:47.319Z,90.20
2019-06-10T16:49:19.220Z,90.00
2019-06-10T16:51:51.793Z,90.80
2019-06-10T16:54:24.220Z,91.40
2019-06-10T16:56:57.173Z,90.90
2019-06-10T16:59:27.715Z,91.00
2019-06-10T17:01:58.591Z,91.00
2019-06-10T17:04:30.713Z,91.20
2019-06-10T17:07:02.181Z,93.60
2019-06-10T17:09:32.986Z,91.50
2019-06-10T17:12:03.509Z,91.50
2019-06-10T17:14:33.911Z,91.30
2019-06-10T17:17:04.295Z,91.60
2019-06-10T17:19:34.684Z,92.00
2019-06-10T17:22:05.060Z,92.90
2019-06-10T17:24:35.453Z,93.10
2019-06-10T17:27:05.816Z,93.80
2019-06-10T17:29:36.219Z,93.50
2019-06-10T17:32:06.757Z,93.50
2019-06-10T17:34:37.155Z,94.00
2019-06-10T17:37:07.532Z,95.00
2019-06-10T17:39:37.925Z,97.40
2019-06-10T17:42:08.302Z,97.60
2019-06-10T17:44:38.705Z,97.90
2019-06-10T17:47:09.079Z,99.10
2019-06-10T17:49:41.856Z,99.90
2019-06-10T17:52:12.982Z,99.90
2019-06-10T17:54:43.603Z,99.90
2019-06-10T17:57:13.972Z,99.90
2019-06-10T17:59:44.359Z,99.90
2019-06-10T18:02:14.745Z,99.90
2019-06-10T18:04:45.152Z,99.90
2019-06-10T18:07:15.521Z,99.90
2019-06-10T18:09:45.920Z,99.90
2019-06-10T18:12:16.289Z,99.90
2019-06-10T18:14:46.690Z,99.90
2019-06-10T18:17:17.060Z,99.90
2019-06-10T18:19:47.532Z,99.90
2019-06-10T18:22:17.964Z,99.90
2019-06-10T18:24:48.366Z,99.90
2019-06-10T18:27:18.743Z,99.90
2019-06-10T18:29:49.125Z,99.90
2019-06-10T18:32:19.507Z,99.90
2019-06-10T18:34:52.008Z,99.90
2019-06-10T18:37:42.255Z,99.90
2019-06-10T18:40:14.635Z,99.90
2019-06-10T18:42:45.543Z,99.90
2019-06-10T18:45:16.258Z,99.90
2019-06-10T18:50:17.912Z,99.90
2019-06-10T18:52:48.324Z,99.90
2019-06-10T18:55:19.798Z,99.90
2019-06-10T18:57:50.166Z,99.90
2019-06-10T19:00:22.979Z,99.90
2019-06-10T19:03:09.264Z,99.90
2019-06-10T19:05:26.662Z,99.90
2019-06-10T19:07:57.030Z,99.90
2019-06-10T19:10:27.428Z,99.90
2019-06-10T19:12:58.749Z,99.90
2019-06-10T19:15:29.527Z,99.90
2019-06-10T19:18:02.951Z,99.90
2019-06-10T19:20:35.410Z,99.90
2019-06-10T19:23:04.245Z,99.90
2019-06-10T19:25:37.247Z,99.90
2019-06-10T19:28:06.719Z,99.90
2019-06-10T19:30:39.389Z,99.90
2019-06-10T19:33:12.628Z,99.90
2019-06-10T19:35:43.822Z,99.90
2019-06-10T19:38:15.624Z,99.90
2019-06-10T19:40:46.228Z,99.90
2019-06-10T19:43:16.996Z,99.90
2019-06-10T19:45:47.380Z,99.90
2019-06-10T19:48:17.949Z,99.90
2019-06-10T19:50:51.302Z,99.90
2019-06-10T19:53:22.181Z,99.90
2019-06-10T19:55:53.416Z,99.90
2019-06-10T19:58:24.941Z,99.90
2019-06-10T20:00:56.582Z,99.90
2019-06-10T20:03:27.139Z,99.90
2019-06-10T20:05:57.596Z,99.90
2019-06-10T20:08:27.961Z,99.90
2019-06-10T20:10:59.401Z,99.90
2019-06-10T20:13:32.297Z,99.90
2019-06-10T20:16:02.961Z,99.90
2019-06-10T20:18:33.638Z,99.90
2019-06-10T20:21:03.992Z,99.90
2019-06-10T20:23:35.417Z,99.90
2019-06-10T20:26:05.927Z,99.90
2019-06-10T20:28:36.610Z,99.90
2019-06-10T20:31:07.040Z,99.90
2019-06-10T20:33:39.073Z,99.90
2019-06-10T20:36:17.777Z,99.90
2019-06-10T20:38:46.396Z,99.90
2019-06-10T20:41:14.643Z,99.90
2019-06-10T20:43:47.094Z,99.90
2019-06-10T20:46:17.294Z,99.90
2019-06-10T20:48:51.104Z,99.90
2019-06-10T20:51:22.537Z,99.90
2019-06-10T20:53:53.288Z,99.90
2019-06-10T20:56:24.159Z,99.90
2019-06-10T20:58:54.526Z,99.90
2019-06-10T21:01:25.710Z,99.90
2019-06-10T21:03:56.186Z,99.90
2019-06-10T21:06:32.708Z,99.90
2019-06-10T21:09:09.520Z,99.90
2019-06-10T21:11:40.001Z,99.90
2019-06-10T21:14:12.255Z,99.90
2019-06-10T21:16:42.446Z,99.90
2019-06-10T21:19:12.897Z,99.90
2019-06-10T21:21:45.626Z,99.90
2019-06-10T21:24:15.810Z,99.90
2019-06-10T21:26:47.094Z,99.90
2019-06-10T21:29:25.301Z,99.90
2019-06-10T21:31:55.761Z,99.90
2019-06-10T21:34:26.156Z,99.90
2019-06-10T21:36:56.621Z,99.90
2019-06-10T21:39:27.028Z,99.90
2019-06-10T21:41:57.394Z,99.90
2019-06-10T21:44:28.741Z,99.90
2019-06-10T21:47:02.321Z,99.90
2019-06-10T21:49:42.739Z,99.90
2019-06-10T21:52:13.341Z,99.90
2019-06-10T21:54:45.159Z,99.90
2019-06-10T21:57:17.589Z,99.90
2019-06-10T21:59:48.936Z,99.90
2019-06-10T22:02:19.527Z,99.90
2019-06-10T22:04:53.778Z,99.90
2019-06-10T22:07:23.142Z,99.90
2019-06-10T22:09:55.773Z,99.90
2019-06-10T22:12:26.179Z,99.90
2019-06-10T22:14:56.570Z,99.90
2019-06-10T22:17:26.937Z,99.90
2019-06-10T22:19:57.580Z,99.90
2019-06-10T22:22:28.181Z,99.90
2019-06-10T22:24:58.679Z,99.90
2019-06-10T22:27:29.476Z,99.90
2019-06-10T22:30:02.704Z,99.90
2019-06-10T22:32:34.025Z,99.90
2019-06-10T22:35:06.631Z,99.90
2019-06-10T22:37:36.999Z,99.90
2019-06-10T22:40:07.993Z,99.90
2019-06-10T22:42:38.360Z,99.90
2019-06-10T22:45:13.041Z,99.90
2019-06-10T22:47:42.705Z,99.90
2019-06-10T22:50:13.572Z,99.90
2019-06-10T22:52:44.004Z,99.90
2019-06-10T22:55:14.863Z,99.90
2019-06-10T22:57:45.237Z,99.90
2019-06-10T23:00:16.746Z,99.90
2019-06-10T23:02:47.809Z,99.90
2019-06-10T23:05:19.310Z,99.90
2019-06-10T23:07:50.804Z,99.90
2019-06-10T23:10:22.943Z,99.90
2019-06-10T23:12:55.068Z,99.90
2019-06-10T23:15:25.423Z,99.90
2019-06-10T23:17:57.505Z,99.90
2019-06-10T23:20:28.873Z,99.90
2019-06-10T23:23:00.316Z,99.90
2019-06-10T23:25:32.620Z,99.90
2019-06-10T23:28:02.832Z,99.90
2019-06-10T23:30:33.238Z,99.90
2019-06-10T23:33:03.954Z,99.90
2019-06-10T23:35:34.358Z,99.90
2019-06-10T23:38:05.247Z,99.90
2019-06-10T23:40:35.804Z,99.90
2019-06-10T23:43:06.250Z,99.90
2019-06-10T23:45:36.693Z,99.90
2019-06-10T23:48:07.066Z,99.90
2019-06-10T23:50:37.466Z,99.90
2019-06-10T23:53:08.108Z,99.90
2019-06-10T23:55:39.491Z,99.90
2019-06-10T23:58:13.000Z,99.90
